createdAt,value
2023-02-25T00:00:18.709Z,9.81
2023-02-25T00:01:42.850Z,9.46
2023-02-25T00:02:46.655Z,8.91
2023-02-25T00:03:48.597Z,8.37
2023-02-25T00:04:50.653Z,7.88
2023-02-25T00:05:52.243Z,7.45
2023-02-25T00:06:54.023Z,7.15
2023-02-25T00:07:55.633Z,7.28
2023-02-25T00:08:57.603Z,7.74
2023-02-25T00:10:07.028Z,8.28
2023-02-25T00:11:08.714Z,8.87
2023-02-25T00:12:10.364Z,9.31
2023-02-25T00:13:18.056Z,9.69
2023-02-25T00:14:20.251Z,9.85
2023-02-25T00:15:22.308Z,9.58
2023-02-25T00:16:25.394Z,9.10
2023-02-25T00:17:27.408Z,8.58
2023-02-25T00:18:31.009Z,8.08
2023-02-25T00:19:32.602Z,7.63
2023-02-25T00:20:34.219Z,7.29
2023-02-25T00:21:36.294Z,7.36
2023-02-25T00:22:38.642Z,7.80
2023-02-25T00:23:40.516Z,8.35
2023-02-25T00:24:42.820Z,8.87
2023-02-25T00:25:45.560Z,9.31
2023-02-25T00:26:47.215Z,9.69
2023-02-25T00:27:48.884Z,9.91
2023-02-25T00:28:50.539Z,9.74
2023-02-25T00:29:53.154Z,9.27
2023-02-25T00:30:55.554Z,8.74
2023-02-25T00:31:57.321Z,8.20
2023-02-25T00:32:59.360Z,7.75
2023-02-25T00:34:00.985Z,7.38
2023-02-25T00:35:05.717Z,7.30
2023-02-25T00:36:12.605Z,7.67
2023-02-25T00:37:14.985Z,8.23
2023-02-25T00:38:17.733Z,8.75
2023-02-25T00:39:21.394Z,9.23
2023-02-25T00:40:23.834Z,9.61
2023-02-25T00:41:27.469Z,9.92
2023-02-25T00:42:29.261Z,9.91
2023-02-25T00:43:30.906Z,9.52
2023-02-25T00:44:32.571Z,9.01
2023-02-25T00:45:34.259Z,8.48
2023-02-25T00:46:35.947Z,7.98
2023-02-25T00:47:37.805Z,7.55
2023-02-25T00:48:40.469Z,7.31
2023-02-25T00:49:42.787Z,7.53
2023-02-25T00:50:44.674Z,8.02
2023-02-25T00:51:46.578Z,8.57
2023-02-25T00:52:48.211Z,9.08
2023-02-25T00:53:50.931Z,9.50
2023-02-25T00:54:52.758Z,9.86
2023-02-25T00:56:00.821Z,9.97
2023-02-25T00:57:02.567Z,9.62
2023-02-25T00:58:04.179Z,9.12
2023-02-25T00:59:05.847Z,8.58
2023-02-25T01:00:10.203Z,8.08
2023-02-25T01:01:23.704Z,7.62
2023-02-25T01:02:25.692Z,7.37
2023-02-25T01:03:28.162Z,7.65
2023-02-25T01:04:31.643Z,8.18
2023-02-25T01:05:33.980Z,8.72
2023-02-25T01:06:40.082Z,9.20
2023-02-25T01:07:46.792Z,9.64
2023-02-25T01:08:48.530Z,9.99
2023-02-25T01:09:50.113Z,10.01
2023-02-25T01:10:53.763Z,9.66
2023-02-25T01:11:55.458Z,9.13
2023-02-25T01:12:57.052Z,8.61
2023-02-25T01:14:00.593Z,8.13
2023-02-25T01:15:02.407Z,7.70
2023-02-25T01:16:10.196Z,7.48
2023-02-25T01:17:12.059Z,7.74
2023-02-25T01:18:18.298Z,8.22
2023-02-25T01:19:23.250Z,8.79
2023-02-25T01:20:29.968Z,9.24
2023-02-25T01:21:34.199Z,9.64
2023-02-25T01:22:35.840Z,9.91
2023-02-25T01:23:37.717Z,9.85
2023-02-25T01:24:39.309Z,9.44
2023-02-25T01:25:42.029Z,8.90
2023-02-25T01:26:44.982Z,8.37
2023-02-25T01:27:47.675Z,7.86
2023-02-25T01:28:49.413Z,7.42
2023-02-25T01:29:51.236Z,7.28
2023-02-25T01:30:53.274Z,7.60
2023-02-25T01:31:56.686Z,8.11
2023-02-25T01:33:18.774Z,8.66
2023-02-25T01:34:21.369Z,9.26
2023-02-25T01:35:23.017Z,9.64
2023-02-25T01:36:27.218Z,9.92
2023-02-25T01:37:30.017Z,9.82
2023-02-25T01:38:32.067Z,9.36
2023-02-25T01:39:34.133Z,8.82
2023-02-25T01:40:35.780Z,8.30
2023-02-25T01:41:37.684Z,7.84
2023-02-25T01:42:39.286Z,7.44
2023-02-25T01:43:41.511Z,7.35
2023-02-25T01:45:05.409Z,7.67
2023-02-25T01:46:07.097Z,8.38
2023-02-25T01:47:19.791Z,8.88
2023-02-25T01:48:28.040Z,9.39
2023-02-25T01:49:36.428Z,9.77
2023-02-25T01:50:44.102Z,9.90
2023-02-25T01:51:50.726Z,9.52
2023-02-25T01:52:55.653Z,8.97
2023-02-25T01:53:58.928Z,8.39
2023-02-25T01:55:01.451Z,7.87
2023-02-25T01:56:03.866Z,7.44
2023-02-25T01:57:10.452Z,7.18
2023-02-25T01:58:12.903Z,7.42
2023-02-25T01:59:16.223Z,7.94
2023-02-25T02:00:19.006Z,8.52
2023-02-25T02:01:41.160Z,9.02
2023-02-25T02:02:49.404Z,9.55
2023-02-25T02:03:52.510Z,9.82
2023-02-25T02:04:54.956Z,9.66
2023-02-25T02:06:15.791Z,9.19
2023-02-25T02:07:18.936Z,8.50
2023-02-25T02:08:21.082Z,7.97
2023-02-25T02:09:25.702Z,7.49
2023-02-25T02:10:27.681Z,7.10
2023-02-25T02:11:29.645Z,7.13
2023-02-25T02:12:34.021Z,7.53
2023-02-25T02:13:39.076Z,8.07
2023-02-25T02:14:42.456Z,8.62
2023-02-25T02:15:52.494Z,9.07
2023-02-25T02:17:05.114Z,9.47
2023-02-25T02:18:08.421Z,9.65
2023-02-25T02:19:26.098Z,9.36
2023-02-25T02:20:44.319Z,8.72
2023-02-25T02:21:54.711Z,8.03
2023-02-25T02:22:56.416Z,7.49
2023-02-25T02:24:16.552Z,7.10
2023-02-25T02:25:52.838Z,7.15
2023-02-25T02:27:07.642Z,7.88
2023-02-25T02:28:40.157Z,8.50
2023-02-25T02:30:17.646Z,9.14
2023-02-25T02:31:25.031Z,9.57
2023-02-25T02:32:40.538Z,9.50
2023-02-25T02:34:00.995Z,8.96
2023-02-25T02:35:36.649Z,8.22
2023-02-25T02:36:56.605Z,7.44
2023-02-25T02:38:14.488Z,7.01
2023-02-25T02:39:26.522Z,7.24
2023-02-25T02:40:40.969Z,7.83
2023-02-25T02:41:56.936Z,8.47
2023-02-25T02:43:04.731Z,9.01
2023-02-25T02:44:14.760Z,9.40
2023-02-25T02:45:22.341Z,9.67
2023-02-25T02:46:28.735Z,9.47
2023-02-25T02:47:39.658Z,8.93
2023-02-25T02:48:50.393Z,8.29
2023-02-25T02:50:03.660Z,7.66
2023-02-25T02:51:13.426Z,7.09
2023-02-25T02:52:22.270Z,6.80
2023-02-25T02:53:27.059Z,7.08
2023-02-25T02:54:32.923Z,7.60
2023-02-25T02:55:38.905Z,8.15
2023-02-25T02:57:00.795Z,8.65
2023-02-25T02:58:19.654Z,9.14
2023-02-25T02:59:31.504Z,9.42
2023-02-25T03:00:40.179Z,9.17
2023-02-25T03:01:48.170Z,8.61
2023-02-25T03:02:58.896Z,8.00
2023-02-25T03:04:04.562Z,7.43
2023-02-25T03:05:09.806Z,6.97
2023-02-25T03:06:15.757Z,6.74
2023-02-25T03:07:21.349Z,7.02
2023-02-25T03:08:28.524Z,7.53
2023-02-25T03:09:50.970Z,8.06
2023-02-25T03:10:52.958Z,8.64
2023-02-25T03:11:56.502Z,8.98
2023-02-25T03:12:58.187Z,9.17
2023-02-25T03:14:01.332Z,8.95
2023-02-25T03:15:03.121Z,8.46
2023-02-25T03:16:08.502Z,7.89
2023-02-25T03:17:20.314Z,7.35
2023-02-25T03:18:29.773Z,6.80
2023-02-25T03:19:37.908Z,6.45
2023-02-25T03:20:45.060Z,6.63
2023-02-25T03:21:55.273Z,7.12
2023-02-25T03:23:03.261Z,7.68
2023-02-25T03:24:10.064Z,8.16
2023-02-25T03:25:20.662Z,8.56
2023-02-25T03:26:27.077Z,8.90
2023-02-25T03:27:37.677Z,8.89
2023-02-25T03:28:43.718Z,8.46
2023-02-25T03:29:45.366Z,7.86
2023-02-25T03:30:52.669Z,7.33
2023-02-25T03:32:07.205Z,6.80
2023-02-25T03:33:28.110Z,6.37
2023-02-25T03:34:42.359Z,6.56
2023-02-25T03:35:46.739Z,7.16
2023-02-25T03:37:02.436Z,7.69
2023-02-25T03:38:08.027Z,8.23
2023-02-25T03:39:17.235Z,8.61
2023-02-25T03:40:21.333Z,8.92
2023-02-25T03:41:26.132Z,8.83
2023-02-25T03:42:32.738Z,8.37
2023-02-25T03:43:39.834Z,7.75
2023-02-25T03:44:45.938Z,7.15
2023-02-25T03:45:48.345Z,6.62
2023-02-25T03:46:51.633Z,6.26
2023-02-25T03:47:55.709Z,6.33
2023-02-25T03:48:59.429Z,6.76
2023-02-25T03:50:10.299Z,7.28
2023-02-25T03:51:16.544Z,7.82
2023-02-25T03:52:22.835Z,8.25
2023-02-25T03:53:25.894Z,8.60
2023-02-25T03:55:12.129Z,8.81
2023-02-25T03:56:14.062Z,8.41
2023-02-25T03:57:19.233Z,7.81
2023-02-25T03:58:21.008Z,7.22
2023-02-25T03:59:28.466Z,6.71
2023-02-25T04:00:32.390Z,6.27
2023-02-25T04:01:35.060Z,6.23
2023-02-25T04:02:40.294Z,6.60
2023-02-25T04:03:42.449Z,7.14
2023-02-25T04:04:44.187Z,7.62
2023-02-25T04:05:46.021Z,8.05
2023-02-25T04:06:47.747Z,8.42
2023-02-25T04:07:49.412Z,8.71
2023-02-25T04:08:52.237Z,8.81
2023-02-25T04:09:54.360Z,8.49
2023-02-25T04:10:56.007Z,7.94
2023-02-25T04:11:57.760Z,7.37
2023-02-25T04:13:00.118Z,6.82
2023-02-25T04:14:01.758Z,6.34
2023-02-25T04:15:03.785Z,6.20
2023-02-25T04:16:06.114Z,6.51
2023-02-25T04:17:08.846Z,6.99
2023-02-25T04:18:10.673Z,7.48
2023-02-25T04:19:12.332Z,7.91
2023-02-25T04:20:16.137Z,8.30
2023-02-25T04:21:27.318Z,8.63
2023-02-25T04:22:29.132Z,8.90
2023-02-25T04:23:30.695Z,8.81
2023-02-25T04:24:32.319Z,8.36
2023-02-25T04:25:34.615Z,7.79
2023-02-25T04:26:36.614Z,7.23
2023-02-25T04:27:38.464Z,6.74
2023-02-25T04:28:40.256Z,6.41
2023-02-25T04:29:43.197Z,6.55
2023-02-25T04:30:44.911Z,7.00
2023-02-25T04:31:46.716Z,7.52
2023-02-25T04:32:48.858Z,8.00
2023-02-25T04:33:50.683Z,8.42
2023-02-25T04:34:52.318Z,8.76
2023-02-25T04:35:54.416Z,9.03
2023-02-25T04:36:55.964Z,9.14
2023-02-25T04:37:57.617Z,8.83
2023-02-25T04:39:00.380Z,8.29
2023-02-25T04:40:02.214Z,7.72
2023-02-25T04:41:03.890Z,7.19
2023-02-25T04:42:05.520Z,6.73
2023-02-25T04:43:07.256Z,6.54
2023-02-25T04:44:09.476Z,6.79
2023-02-25T04:45:11.865Z,7.25
2023-02-25T04:46:13.839Z,7.72
2023-02-25T04:47:15.599Z,8.15
2023-02-25T04:48:24.150Z,8.52
2023-02-25T04:49:25.869Z,8.85
2023-02-25T04:50:27.834Z,9.09
2023-02-25T04:51:29.589Z,9.07
2023-02-25T04:52:31.138Z,8.65
2023-02-25T04:53:33.158Z,8.06
2023-02-25T04:54:34.746Z,7.47
2023-02-25T04:55:36.986Z,6.94
2023-02-25T04:56:39.245Z,6.57
2023-02-25T04:57:42.421Z,6.67
2023-02-25T04:58:44.861Z,7.10
2023-02-25T04:59:46.505Z,7.60
2023-02-25T05:00:48.367Z,8.06
2023-02-25T05:01:50.070Z,8.47
2023-02-25T05:02:51.812Z,8.81
2023-02-25T05:03:57.223Z,9.09
2023-02-25T05:04:59.092Z,9.27
2023-02-25T05:06:01.022Z,9.06
2023-02-25T05:07:03.538Z,8.54
2023-02-25T05:08:05.176Z,7.93
2023-02-25T05:09:09.328Z,7.39
2023-02-25T05:10:14.536Z,6.88
2023-02-25T05:11:16.520Z,6.70
2023-02-25T05:12:18.305Z,6.98
2023-02-25T05:13:20.247Z,7.44
2023-02-25T05:14:22.083Z,7.93
2023-02-25T05:15:23.817Z,8.36
2023-02-25T05:16:26.476Z,8.72
2023-02-25T05:17:28.504Z,9.02
2023-02-25T05:18:30.068Z,9.28
2023-02-25T05:19:31.760Z,9.28
2023-02-25T05:20:33.835Z,8.88
2023-02-25T05:21:35.408Z,8.30
2023-02-25T05:22:37.083Z,7.73
2023-02-25T05:23:39.913Z,7.21
2023-02-25T05:24:41.891Z,6.81
2023-02-25T05:25:44.266Z,6.85
2023-02-25T05:26:46.101Z,7.24
2023-02-25T05:27:47.794Z,7.72
2023-02-25T05:28:51.686Z,8.20
2023-02-25T05:29:54.917Z,8.65
2023-02-25T05:30:56.927Z,9.01
2023-02-25T05:31:58.729Z,9.30
2023-02-25T05:33:00.428Z,9.47
2023-02-25T05:34:02.133Z,9.24
2023-02-25T05:35:04.193Z,8.72
2023-02-25T05:36:07.040Z,8.13
2023-02-25T05:37:08.800Z,7.58
2023-02-25T05:38:10.860Z,7.09
2023-02-25T05:39:13.903Z,6.88
2023-02-25T05:40:15.858Z,7.11
2023-02-25T05:41:17.752Z,7.56
2023-02-25T05:42:19.485Z,8.02
2023-02-25T05:43:21.381Z,8.46
2023-02-25T05:44:23.161Z,8.81
2023-02-25T05:45:24.758Z,9.10
2023-02-25T05:46:26.983Z,9.34
2023-02-25T05:47:28.987Z,9.31
2023-02-25T05:48:31.321Z,8.92
2023-02-25T05:49:33.407Z,8.34
2023-02-25T05:50:41.159Z,7.75
2023-02-25T05:51:42.904Z,7.16
2023-02-25T05:52:45.116Z,6.82
2023-02-25T05:53:48.078Z,6.97
2023-02-25T05:54:49.800Z,7.42
2023-02-25T05:55:51.439Z,7.93
2023-02-25T05:56:53.171Z,8.41
2023-02-25T05:57:55.128Z,8.80
2023-02-25T05:58:56.999Z,9.14
2023-02-25T05:59:58.626Z,9.42
2023-02-25T06:01:00.238Z,9.58
2023-02-25T06:02:01.883Z,9.35
2023-02-25T06:03:03.974Z,8.84
2023-02-25T06:04:05.989Z,8.23
2023-02-25T06:05:08.423Z,7.66
2023-02-25T06:06:13.217Z,7.18
2023-02-25T06:07:15.087Z,7.01
2023-02-25T06:08:16.869Z,7.31
2023-02-25T06:09:19.420Z,7.78
2023-02-25T06:10:22.248Z,8.28
2023-02-25T06:11:26.477Z,8.72
2023-02-25T06:12:30.106Z,9.09
2023-02-25T06:13:31.740Z,9.38
2023-02-25T06:14:33.901Z,9.56
2023-02-25T06:15:39.551Z,9.40
2023-02-25T06:16:42.156Z,8.88
2023-02-25T06:17:43.722Z,8.27
2023-02-25T06:18:46.365Z,7.70
2023-02-25T06:19:47.928Z,7.18
2023-02-25T06:20:49.744Z,6.92
2023-02-25T06:21:51.473Z,7.12
2023-02-25T06:22:53.059Z,7.56
2023-02-25T06:23:55.279Z,8.04
2023-02-25T06:24:56.954Z,8.49
2023-02-25T06:25:59.060Z,8.85
2023-02-25T06:27:00.769Z,9.15
2023-02-25T06:28:02.363Z,9.38
2023-02-25T06:29:03.981Z,9.44
2023-02-25T06:30:05.788Z,9.13
2023-02-25T06:31:12.509Z,8.58
2023-02-25T06:32:14.468Z,7.95
2023-02-25T06:33:16.227Z,7.42
2023-02-25T06:34:19.096Z,7.00
2023-02-25T06:35:23.484Z,6.98
2023-02-25T06:36:25.609Z,7.36
2023-02-25T06:37:27.567Z,7.84
2023-02-25T06:38:29.943Z,8.30
2023-02-25T06:39:31.955Z,8.70
2023-02-25T06:40:33.946Z,9.04
2023-02-25T06:41:35.759Z,9.32
2023-02-25T06:42:38.136Z,9.47
2023-02-25T06:43:39.817Z,9.26
2023-02-25T06:44:41.452Z,8.76
2023-02-25T06:45:43.144Z,8.17
2023-02-25T06:46:44.851Z,7.62
2023-02-25T06:47:46.650Z,7.14
2023-02-25T06:48:48.280Z,6.92
2023-02-25T06:49:49.885Z,7.17
2023-02-25T06:50:51.530Z,7.62
2023-02-25T06:51:53.496Z,8.12
2023-02-25T06:52:57.804Z,8.59
2023-02-25T06:53:59.737Z,8.99
2023-02-25T06:55:01.398Z,9.31
2023-02-25T06:56:03.209Z,9.54
2023-02-25T06:57:04.909Z,9.48
2023-02-25T06:58:06.796Z,9.05
2023-02-25T06:59:08.790Z,8.47
2023-02-25T07:00:11.368Z,7.89
2023-02-25T07:01:15.073Z,7.36
2023-02-25T07:02:16.720Z,6.98
2023-02-25T07:03:18.311Z,7.08
2023-02-25T07:04:20.100Z,7.50
2023-02-25T07:05:21.742Z,8.01
2023-02-25T07:06:23.728Z,8.50
2023-02-25T07:07:26.734Z,8.94
2023-02-25T07:08:28.407Z,9.29
2023-02-25T07:09:30.379Z,9.56
2023-02-25T07:10:32.098Z,9.62
2023-02-25T07:11:35.866Z,9.29
2023-02-25T07:12:37.585Z,8.76
2023-02-25T07:13:39.159Z,8.20
2023-02-25T07:14:40.929Z,7.69
2023-02-25T07:15:42.572Z,7.30
2023-02-25T07:16:44.509Z,7.29
2023-02-25T07:17:46.816Z,7.65
2023-02-25T07:18:48.591Z,8.14
2023-02-25T07:19:50.614Z,8.62
2023-02-25T07:20:52.682Z,9.03
2023-02-25T07:21:54.589Z,9.37
2023-02-25T07:22:56.575Z,9.62
2023-02-25T07:23:58.569Z,9.58
2023-02-25T07:25:00.732Z,9.17
2023-02-25T07:26:03.416Z,8.62
2023-02-25T07:27:05.082Z,8.05
2023-02-25T07:28:06.818Z,7.55
2023-02-25T07:29:08.780Z,7.13
2023-02-25T07:30:13.782Z,7.07
2023-02-25T07:31:19.538Z,7.43
2023-02-25T07:32:21.910Z,7.96
2023-02-25T07:33:23.835Z,8.44
2023-02-25T07:34:26.090Z,8.85
2023-02-25T07:35:28.009Z,9.20
2023-02-25T07:36:33.498Z,9.48
2023-02-25T07:37:36.085Z,9.53
2023-02-25T07:38:38.802Z,9.16
2023-02-25T07:39:40.618Z,8.60
2023-02-25T07:40:42.518Z,8.03
2023-02-25T07:41:44.345Z,7.51
2023-02-25T07:42:46.875Z,7.08
2023-02-25T07:43:48.599Z,7.03
2023-02-25T07:44:50.161Z,7.37
2023-02-25T07:45:52.067Z,7.85
2023-02-25T07:46:54.153Z,8.34
2023-02-25T07:47:56.089Z,8.76
2023-02-25T07:48:57.897Z,9.11
2023-02-25T07:49:59.744Z,9.42
2023-02-25T07:51:09.120Z,9.53
2023-02-25T07:52:10.777Z,9.18
2023-02-25T07:53:12.483Z,8.64
2023-02-25T07:54:15.571Z,8.06
2023-02-25T07:55:17.282Z,7.53
2023-02-25T07:56:20.353Z,7.05
2023-02-25T07:57:22.036Z,6.88
2023-02-25T07:58:23.909Z,7.16
2023-02-25T07:59:25.741Z,7.63
2023-02-25T08:00:27.937Z,8.11
2023-02-25T08:01:31.686Z,8.54
2023-02-25T08:02:33.403Z,8.93
2023-02-25T08:03:35.122Z,9.26
2023-02-25T08:04:37.505Z,9.50
2023-02-25T08:05:39.159Z,9.46
2023-02-25T08:06:41.163Z,9.06
2023-02-25T08:07:42.930Z,8.51
2023-02-25T08:08:45.044Z,7.94
2023-02-25T08:09:47.015Z,7.40
2023-02-25T08:10:49.578Z,7.00
2023-02-25T08:11:52.150Z,7.03
2023-02-25T08:12:54.045Z,7.43
2023-02-25T08:13:56.030Z,7.91
2023-02-25T08:15:00.262Z,8.40
2023-02-25T08:16:09.886Z,8.82
2023-02-25T08:17:13.138Z,9.20
2023-02-25T08:18:14.914Z,9.47
2023-02-25T08:19:16.650Z,9.52
2023-02-25T08:20:18.617Z,9.18
2023-02-25T08:21:23.522Z,8.64
2023-02-25T08:22:25.422Z,8.02
2023-02-25T08:23:27.088Z,7.50
2023-02-25T08:24:29.079Z,7.11
2023-02-25T08:25:30.854Z,7.12
2023-02-25T08:26:32.578Z,7.49
2023-02-25T08:27:35.253Z,7.98
2023-02-25T08:28:37.508Z,8.45
2023-02-25T08:29:42.621Z,8.86
2023-02-25T08:30:45.446Z,9.24
2023-02-25T08:31:48.982Z,9.54
2023-02-25T08:32:50.819Z,9.71
2023-02-25T08:33:53.163Z,9.48
2023-02-25T08:34:56.502Z,8.97
2023-02-25T08:36:06.645Z,8.36
2023-02-25T08:37:11.390Z,7.70
2023-02-25T08:38:13.111Z,7.18
2023-02-25T08:39:15.108Z,7.02
2023-02-25T08:40:19.861Z,7.31
2023-02-25T08:41:23.048Z,7.83
2023-02-25T08:42:25.439Z,8.34
2023-02-25T08:43:27.211Z,8.80
2023-02-25T08:44:29.593Z,9.18
2023-02-25T08:45:31.784Z,9.48
2023-02-25T08:46:33.663Z,9.67
2023-02-25T08:47:35.688Z,9.52
2023-02-25T08:48:37.463Z,9.02
2023-02-25T08:49:40.186Z,8.42
2023-02-25T08:50:41.772Z,7.85
2023-02-25T08:51:43.370Z,7.36
2023-02-25T08:52:45.058Z,7.08
2023-02-25T08:53:46.773Z,7.27
2023-02-25T08:54:49.085Z,7.73
2023-02-25T08:55:53.784Z,8.25
2023-02-25T08:56:57.262Z,8.74
2023-02-25T08:57:59.023Z,9.17
2023-02-25T08:59:00.740Z,9.50
2023-02-25T09:00:06.958Z,9.79
2023-02-25T09:01:13.003Z,9.88
2023-02-25T09:02:15.160Z,9.52
2023-02-25T09:03:16.902Z,8.92
2023-02-25T09:04:20.200Z,8.31
2023-02-25T09:05:24.381Z,7.72
2023-02-25T09:06:28.126Z,7.22
2023-02-25T09:07:30.538Z,7.04
2023-02-25T09:08:32.522Z,7.33
2023-02-25T09:09:34.279Z,7.83
2023-02-25T09:10:49.401Z,8.34
2023-02-25T09:11:51.531Z,8.87
2023-02-25T09:12:54.584Z,9.23
2023-02-25T09:13:56.352Z,9.55
2023-02-25T09:14:57.923Z,9.80
2023-02-25T09:16:00.740Z,9.69
2023-02-25T09:17:02.942Z,9.25
2023-02-25T09:18:04.806Z,8.69
2023-02-25T09:19:06.561Z,8.13
2023-02-25T09:20:11.247Z,7.63
2023-02-25T09:21:14.105Z,7.29
2023-02-25T09:22:16.197Z,7.42
2023-02-25T09:23:21.118Z,7.87
2023-02-25T09:24:23.269Z,8.42
2023-02-25T09:25:25.992Z,8.91
2023-02-25T09:26:27.753Z,9.32
2023-02-25T09:27:30.048Z,9.64
2023-02-25T09:28:32.066Z,9.89
2023-02-25T09:29:37.983Z,9.81
2023-02-25T09:30:39.839Z,9.33
2023-02-25T09:31:42.466Z,8.75
2023-02-25T09:32:45.595Z,8.15
2023-02-25T09:33:47.875Z,7.59
2023-02-25T09:34:50.183Z,7.15
2023-02-25T09:35:52.863Z,7.13
2023-02-25T09:36:55.052Z,7.50
2023-02-25T09:37:57.742Z,7.97
2023-02-25T09:38:59.847Z,8.44
2023-02-25T09:40:02.145Z,8.84
2023-02-25T09:41:17.166Z,9.17
2023-02-25T09:42:22.232Z,9.52
2023-02-25T09:43:26.868Z,9.56
2023-02-25T09:44:30.741Z,9.16
2023-02-25T09:45:34.702Z,8.59
2023-02-25T09:46:41.407Z,7.97
2023-02-25T09:47:48.477Z,7.40
2023-02-25T09:49:02.917Z,6.99
2023-02-25T09:50:07.079Z,7.14
2023-02-25T09:51:32.161Z,7.60
2023-02-25T09:52:38.856Z,8.28
2023-02-25T09:53:47.764Z,8.77
2023-02-25T09:55:00.793Z,9.16
2023-02-25T09:56:06.932Z,9.47
2023-02-25T09:57:13.333Z,9.67
2023-02-25T09:58:21.225Z,9.47
2023-02-25T09:59:24.471Z,8.90
2023-02-25T10:00:27.356Z,8.30
2023-02-25T10:01:29.297Z,7.75
2023-02-25T10:02:41.121Z,7.32
2023-02-25T10:03:53.428Z,7.30
2023-02-25T10:04:57.999Z,7.78
2023-02-25T10:06:03.928Z,8.31
2023-02-25T10:07:09.861Z,8.83
2023-02-25T10:08:11.541Z,9.27
2023-02-25T10:09:16.473Z,9.60
2023-02-25T10:10:36.317Z,9.89
2023-02-25T10:11:38.041Z,10.00
2023-02-25T10:12:50.825Z,9.67
2023-02-25T10:14:02.673Z,9.09
2023-02-25T10:15:20.146Z,8.48
2023-02-25T10:16:28.240Z,7.90
2023-02-25T10:17:47.549Z,7.87
2023-02-25T10:19:00.019Z,8.40
2023-02-25T10:20:04.516Z,8.99
2023-02-25T10:21:07.719Z,9.48
2023-02-25T10:22:39.357Z,9.89
2023-02-25T10:23:54.837Z,10.36
2023-02-25T10:25:17.921Z,10.48
2023-02-25T10:26:22.926Z,9.99
2023-02-25T10:27:31.232Z,9.44
2023-02-25T10:28:35.793Z,8.83
2023-02-25T10:29:41.200Z,8.30
2023-02-25T10:30:57.805Z,7.83
2023-02-25T10:32:12.706Z,7.84
2023-02-25T10:33:20.785Z,8.36
2023-02-25T10:34:26.048Z,8.93
2023-02-25T10:35:32.388Z,9.43
2023-02-25T10:36:39.570Z,9.84
2023-02-25T10:37:41.397Z,10.17
2023-02-25T10:38:53.469Z,10.30
2023-02-25T10:39:57.533Z,9.95
2023-02-25T10:40:59.291Z,9.40
2023-02-25T10:42:01.042Z,8.83
2023-02-25T10:43:10.737Z,8.31
2023-02-25T10:44:15.945Z,7.79
2023-02-25T10:45:22.172Z,7.61
2023-02-25T10:46:32.968Z,7.94
2023-02-25T10:47:36.718Z,8.51
2023-02-25T10:48:41.719Z,9.02
2023-02-25T10:50:03.647Z,9.49
2023-02-25T10:51:09.754Z,10.00
2023-02-25T10:52:17.448Z,10.33
2023-02-25T10:53:19.042Z,10.46
2023-02-25T10:54:24.506Z,10.19
2023-02-25T10:55:26.145Z,9.66
2023-02-25T10:56:31.602Z,9.15
2023-02-25T10:57:41.197Z,8.63
2023-02-25T10:58:59.186Z,8.13
2023-02-25T11:00:04.428Z,7.99
2023-02-25T11:01:13.923Z,8.38
2023-02-25T11:02:39.164Z,8.97
2023-02-25T11:03:58.926Z,9.62
2023-02-25T11:05:00.641Z,10.12
2023-02-25T11:06:32.209Z,10.38
2023-02-25T11:07:35.631Z,10.06
2023-02-25T11:08:38.212Z,9.52
2023-02-25T11:09:40.129Z,8.95
2023-02-25T11:10:42.038Z,8.40
2023-02-25T11:11:53.129Z,7.93
2023-02-25T11:12:57.105Z,7.48
2023-02-25T11:14:01.759Z,7.46
2023-02-25T11:15:17.866Z,7.87
2023-02-25T11:16:19.793Z,8.53
2023-02-25T11:17:21.831Z,9.03
2023-02-25T11:18:27.674Z,9.44
2023-02-25T11:19:32.269Z,9.77
2023-02-25T11:20:34.666Z,9.74
2023-02-25T11:21:38.970Z,9.34
2023-02-25T11:22:43.455Z,8.77
2023-02-25T11:23:47.819Z,8.21
2023-02-25T11:25:02.442Z,7.70
2023-02-25T11:26:06.908Z,7.20
2023-02-25T11:27:23.178Z,7.02
2023-02-25T11:28:31.190Z,7.43
2023-02-25T11:29:38.710Z,8.02
2023-02-25T11:30:40.806Z,8.61
2023-02-25T11:31:44.192Z,9.08
2023-02-25T11:32:53.626Z,9.49
2023-02-25T11:34:01.416Z,9.71
2023-02-25T11:35:17.880Z,9.46
2023-02-25T11:36:23.294Z,8.93
2023-02-25T11:37:38.213Z,8.45
2023-02-25T11:38:42.744Z,7.97
2023-02-25T11:39:57.268Z,7.64
2023-02-25T11:40:59.566Z,7.61
2023-02-25T11:42:17.919Z,8.02
2023-02-25T11:44:45.616Z,9.32
2023-02-25T11:46:12.063Z,9.88
2023-02-25T11:47:24.927Z,9.98
2023-02-25T11:48:45.561Z,9.54
2023-02-25T11:50:01.051Z,8.91
2023-02-25T11:51:18.365Z,8.37
2023-02-25T11:52:29.066Z,7.87
2023-02-25T11:53:39.917Z,7.52
2023-02-25T11:54:45.470Z,7.64
2023-02-25T11:55:47.923Z,8.15
2023-02-25T11:57:04.561Z,8.73
2023-02-25T11:58:23.973Z,9.37
2023-02-25T11:59:29.316Z,9.87
2023-02-25T12:00:31.089Z,9.93
2023-02-25T12:02:05.584Z,9.59
2023-02-25T12:03:18.917Z,8.81
2023-02-25T12:04:26.662Z,8.22
2023-02-25T12:05:40.658Z,7.73
2023-02-25T12:06:56.989Z,7.30
2023-02-25T12:08:13.768Z,7.30
2023-02-25T12:09:34.605Z,7.85
2023-02-25T12:10:42.826Z,8.55
2023-02-25T12:12:03.380Z,9.09
2023-02-25T12:13:23.672Z,9.59
2023-02-25T12:14:50.821Z,9.68
2023-02-25T12:16:15.315Z,9.08
2023-02-25T12:17:29.660Z,8.28
2023-02-25T12:18:50.277Z,7.63
2023-02-25T12:20:14.503Z,7.03
2023-02-25T12:21:28.077Z,6.67
2023-02-25T12:22:48.737Z,6.96
2023-02-25T12:24:09.248Z,7.62
2023-02-25T12:25:30.644Z,8.26
2023-02-25T12:26:32.225Z,8.84
2023-02-25T12:27:52.666Z,9.21
2023-02-25T12:29:12.790Z,9.37
2023-02-25T12:30:35.514Z,8.91
2023-02-25T12:31:53.970Z,8.23
2023-02-25T12:33:09.251Z,7.64
2023-02-25T12:34:22.704Z,7.20
2023-02-25T12:35:42.326Z,7.23
2023-02-25T12:36:53.306Z,7.83
2023-02-25T12:38:14.073Z,8.48
2023-02-25T12:39:27.252Z,9.15
2023-02-25T12:40:34.990Z,9.63
2023-02-25T12:42:02.804Z,9.92
2023-02-25T12:43:16.505Z,9.62
2023-02-25T12:44:36.397Z,9.02
2023-02-25T12:45:46.292Z,8.34
2023-02-25T12:47:02.153Z,7.79
2023-02-25T12:48:13.408Z,7.27
2023-02-25T12:49:26.952Z,7.25
2023-02-25T12:50:48.579Z,7.74
2023-02-25T12:52:03.453Z,8.43
2023-02-25T12:53:23.773Z,8.97
2023-02-25T12:54:28.528Z,9.45
2023-02-25T12:55:45.852Z,9.75
2023-02-25T12:56:59.894Z,9.60
2023-02-25T12:58:16.831Z,9.03
2023-02-25T12:59:28.254Z,8.35
2023-02-25T13:00:45.300Z,7.76
2023-02-25T13:02:05.540Z,7.27
2023-02-25T13:03:21.155Z,7.37
2023-02-25T13:04:22.794Z,7.95
2023-02-25T13:05:24.414Z,8.50
2023-02-25T13:06:38.203Z,9.00
2023-02-25T13:07:51.675Z,9.49
2023-02-25T13:09:15.513Z,9.88
2023-02-25T13:10:30.784Z,9.95
2023-02-25T13:12:10.028Z,9.46
2023-02-25T13:13:06.986Z,8.64
2023-02-25T13:14:22.003Z,8.11
2023-02-25T13:15:44.236Z,7.58
2023-02-25T13:16:52.964Z,7.50
2023-02-25T13:18:15.007Z,7.97
2023-02-25T13:19:34.841Z,8.67
2023-02-25T13:20:36.678Z,9.27
2023-02-25T13:21:53.024Z,9.61
2023-02-25T13:23:20.610Z,9.97
2023-02-25T13:24:33.239Z,9.82
2023-02-25T13:25:47.097Z,9.25
2023-02-25T13:27:03.282Z,8.57
2023-02-25T13:28:27.880Z,7.91
2023-02-25T13:29:36.089Z,7.31
2023-02-25T13:30:41.056Z,7.24
2023-02-25T13:31:42.697Z,7.62
2023-02-25T13:33:11.763Z,8.12
2023-02-25T13:34:20.021Z,8.82
2023-02-25T13:35:38.123Z,9.28
2023-02-25T13:36:49.700Z,9.67
2023-02-25T13:38:08.926Z,9.81
2023-02-25T13:39:31.047Z,9.39
2023-02-25T13:40:51.820Z,8.67
2023-02-25T13:42:12.582Z,8.02
2023-02-25T13:43:17.598Z,7.48
2023-02-25T13:44:39.460Z,7.41
2023-02-25T13:45:53.454Z,7.92
2023-02-25T13:46:59.016Z,8.56
2023-02-25T13:48:18.631Z,9.04
2023-02-25T13:49:25.029Z,9.54
2023-02-25T13:50:26.867Z,9.87
2023-02-25T13:51:47.333Z,9.85
2023-02-25T13:53:08.142Z,9.29
2023-02-25T13:54:28.616Z,8.57
2023-02-25T13:55:46.354Z,7.90
2023-02-25T13:57:07.459Z,7.37
2023-02-25T13:58:27.596Z,7.40
2023-02-25T13:59:48.493Z,8.02
2023-02-25T14:00:59.383Z,8.72
2023-02-25T14:02:01.377Z,9.22
2023-02-25T14:03:25.678Z,9.57
2023-02-25T14:04:40.716Z,9.83
2023-02-25T14:06:01.953Z,9.51
2023-02-25T14:07:23.211Z,8.83
2023-02-25T14:08:37.817Z,8.13
2023-02-25T14:10:02.345Z,7.55
2023-02-25T14:11:23.342Z,7.16
2023-02-25T14:38:09.381Z,4.07
